Time;durP1;ratioP1;P1;durP2;ratioP2;P2;SDS_P1;SDS_P2;PMS_P1;PMS_P2;Temp;Humidity;BMP_temperature;BMP_pressure;BME280_temperature;BME280_humidity;BME280_pressure;Samples;Min_cycle;Max_cycle;Signal;HPM_P1;HPM_P2
2023/04/19 00:02:07;;;;;;;0.60;0.40;;;;;;;12.68;100.00;94834.22;5136603;27;20518;-60
2023/04/19 00:04:37;;;;;;;0.80;0.30;;;;;;;12.67;100.00;94819.31;5136400;27;21206;-60
2023/04/19 00:07:05;;;;;;;0.30;0.20;;;;;;;12.69;100.00;94824.38;5136299;27;20438;-60
2023/04/19 00:09:33;;;;;;;0.40;0.30;;;;;;;12.60;100.00;94824.25;5136240;27;20931;-60
2023/04/19 00:12:03;;;;;;;0.40;0.30;;;;;;;12.49;100.00;94806.13;5136454;27;20522;-60
2023/04/19 00:14:32;;;;;;;0.30;0.20;;;;;;;12.58;100.00;94826.41;5135704;27;20505;-60
2023/04/19 00:17:00;;;;;;;0.30;0.20;;;;;;;12.63;100.00;94831.63;5136548;27;20439;-60
2023/04/19 00:19:28;;;;;;;0.73;0.73;;;;;;;12.64;100.00;94822.59;5135584;27;20564;-60
2023/04/19 00:21:57;;;;;;;0.30;0.20;;;;;;;12.64;100.00;94819.94;5136703;27;20426;-60
2023/04/19 00:24:25;;;;;;;0.53;0.30;;;;;;;12.52;100.00;94806.31;5137028;27;20560;-60
2023/04/19 00:26:53;;;;;;;0.30;0.20;;;;;;;12.61;100.00;94822.38;5136244;27;20492;-61
2023/04/19 00:29:23;;;;;;;0.30;0.20;;;;;;;12.60;100.00;94813.63;5135627;27;20434;-60
2023/04/19 00:31:51;;;;;;;0.30;0.20;;;;;;;12.65;100.00;94810.88;5136478;27;20457;-60
2023/04/19 00:34:20;;;;;;;0.47;0.30;;;;;;;12.33;100.00;94804.81;5135934;27;20530;-60
2023/04/19 00:36:48;;;;;;;0.50;0.40;;;;;;;11.68;100.00;94822.53;5135910;27;20461;-60
2023/04/19 00:39:16;;;;;;;0.40;0.30;;;;;;;11.55;100.00;94812.63;5135720;27;20517;-60
2023/04/19 00:41:45;;;;;;;0.50;0.50;;;;;;;11.72;100.00;94819.06;5135823;27;20462;-60
2023/04/19 00:44:13;;;;;;;1.23;0.47;;;;;;;11.51;100.00;94791.19;5109235;27;20458;-60
2023/04/19 00:46:44;;;;;;;0.30;0.20;;;;;;;11.54;100.00;94769.38;5134915;27;20439;-60
2023/04/19 00:49:12;;;;;;;0.40;0.23;;;;;;;11.77;100.00;94768.53;5135448;27;20435;-60
2023/04/19 00:51:41;;;;;;;0.43;0.30;;;;;;;12.29;100.00;94819.75;5135730;27;20442;-60
2023/04/19 00:54:09;;;;;;;0.40;0.40;;;;;;;12.06;100.00;94760.38;5135550;27;20529;-60
2023/04/19 00:56:38;;;;;;;0.30;0.20;;;;;;;12.12;100.00;94761.84;5135133;27;20517;-60
2023/04/19 00:59:09;;;;;;;0.30;0.20;;;;;;;12.48;100.00;94800.00;5135606;27;20513;-60
2023/04/19 01:01:38;;;;;;;0.30;0.20;;;;;;;12.51;100.00;94815.38;5135351;27;20527;-60
2023/04/19 01:04:08;;;;;;;0.30;0.20;;;;;;;12.48;100.00;94799.22;5135227;27;20451;-60
2023/04/19 01:06:37;;;;;;;0.30;0.20;;;;;;;12.30;100.00;94811.50;5135463;27;20464;-60
2023/04/19 01:09:06;;;;;;;0.57;0.53;;;;;;;12.43;100.00;94802.75;5135778;27;20439;-60
2023/04/19 01:11:34;;;;;;;0.30;0.20;;;;;;;12.55;100.00;94805.72;5133507;27;20954;-60
2023/04/19 01:14:03;;;;;;;0.30;0.20;;;;;;;12.47;100.00;94792.34;5135170;27;20526;-60
2023/04/19 01:16:32;;;;;;;0.30;0.20;;;;;;;12.33;100.00;94784.34;5135151;27;20479;-60
2023/04/19 01:19:00;;;;;;;0.30;0.30;;;;;;;12.50;100.00;94795.19;5134856;27;20463;-60
2023/04/19 01:21:31;;;;;;;0.30;0.20;;;;;;;12.15;100.00;94797.66;5134593;27;20513;-60
2023/04/19 01:24:00;;;;;;;0.40;0.27;;;;;;;12.27;100.00;94790.81;5134708;27;20435;-60
2023/04/19 01:26:29;;;;;;;0.30;0.20;;;;;;;12.39;100.00;94796.47;5134722;27;20441;-60
2023/04/19 01:28:57;;;;;;;0.30;0.20;;;;;;;12.42;100.00;94789.78;5134580;27;20470;-60
2023/04/19 01:31:25;;;;;;;0.30;0.20;;;;;;;12.41;100.00;94788.19;5121924;27;20808;-60
2023/04/19 01:33:54;;;;;;;0.33;0.23;;;;;;;12.36;100.00;94782.97;5134322;27;20438;-61
2023/04/19 01:36:22;;;;;;;0.30;0.20;;;;;;;12.40;100.00;94782.09;5134796;27;20496;-60
2023/04/19 01:38:50;;;;;;;0.43;0.43;;;;;;;12.21;100.00;94759.31;5133920;27;20470;-60
2023/04/19 01:41:21;;;;;;;0.30;0.20;;;;;;;12.01;100.00;94726.72;5134081;27;20427;-61
2023/04/19 01:43:49;;;;;;;0.30;0.30;;;;;;;12.35;100.00;94781.38;5133617;27;20984;-61
2023/04/19 01:46:18;;;;;;;0.40;0.40;;;;;;;12.29;100.00;94783.34;5134642;27;20452;-61
2023/04/19 01:48:46;;;;;;;0.30;0.20;;;;;;;12.06;100.00;94789.59;5134683;27;20439;-61
2023/04/19 01:51:16;;;;;;;0.40;0.30;;;;;;;11.99;100.00;94794.50;5134427;27;20568;-61
2023/04/19 01:53:44;;;;;;;0.40;0.30;;;;;;;11.88;100.00;94790.41;5134194;27;20492;-61
2023/04/19 01:56:12;;;;;;;0.30;0.20;;;;;;;12.09;100.00;94787.13;5134112;27;21010;-61
2023/04/19 01:58:42;;;;;;;0.40;0.30;;;;;;;12.14;100.00;94777.50;5133863;27;20529;-61
2023/04/19 02:01:11;;;;;;;0.40;0.30;;;;;;;12.10;100.00;94775.44;5134367;27;20443;-61
2023/04/19 02:03:40;;;;;;;7.17;0.50;;;;;;;12.09;100.00;94781.81;5133730;27;20443;-61
2023/04/19 02:06:11;;;;;;;0.63;0.63;;;;;;;11.42;100.00;94747.81;5134166;27;20443;-61
2023/04/19 02:08:39;;;;;;;0.30;0.20;;;;;;;11.37;100.00;94780.50;5133865;27;20940;-61
2023/04/19 02:11:08;;;;;;;0.40;0.30;;;;;;;11.21;100.00;94788.94;5134056;27;21034;-61
2023/04/19 02:13:37;;;;;;;0.40;0.30;;;;;;;10.90;100.00;94748.81;5134201;27;20438;-61
2023/04/19 02:16:07;;;;;;;0.50;0.50;;;;;;;11.49;100.00;94791.47;5133319;27;20506;-62
2023/04/19 02:18:38;;;;;;;0.40;0.30;;;;;;;11.80;100.00;94783.88;5125164;27;20436;-62
2023/04/19 02:21:07;;;;;;;0.83;0.83;;;;;;;11.87;100.00;94780.84;5128750;27;20954;-62
2023/04/19 02:23:35;;;;;;;0.30;0.20;;;;;;;11.97;100.00;94788.66;5131135;27;20435;-62
2023/04/19 02:26:03;;;;;;;0.30;0.30;;;;;;;11.90;100.00;94774.97;5133462;27;20532;-62
2023/04/19 02:28:32;;;;;;;0.40;0.40;;;;;;;11.41;100.00;94720.47;5133690;27;20441;-62
2023/04/19 02:31:04;;;;;;;1.73;0.40;;;;;;;11.81;100.00;94771.41;5133613;27;20608;-62
2023/04/19 02:33:34;;;;;;;0.30;0.30;;;;;;;11.79;100.00;94782.31;5133965;27;20495;-62
2023/04/19 02:36:03;;;;;;;0.43;0.30;;;;;;;11.65;100.00;94778.00;5133586;27;20530;-61
2023/04/19 02:38:31;;;;;;;0.67;0.67;;;;;;;11.44;100.00;94774.84;5133103;27;20450;-62
2023/04/19 02:41:03;;;;;;;0.40;0.40;;;;;;;11.44;100.00;94780.94;5133077;27;20956;-62
2023/04/19 02:43:31;;;;;;;0.50;0.40;;;;;;;11.22;100.00;94772.75;5132903;27;20439;-61
2023/04/19 02:45:59;;;;;;;0.30;0.20;;;;;;;11.14;100.00;94775.25;5133783;27;20759;-62
2023/04/19 02:48:28;;;;;;;0.73;0.70;;;;;;;10.90;100.00;94764.72;5133343;27;20435;-61
2023/04/19 02:51:17;;;;;;;0.60;0.50;;;;;;;11.18;100.00;94774.38;5133628;27;20887;-62
2023/04/19 02:53:45;;;;;;;0.40;0.30;;;;;;;11.10;100.00;94785.66;5133009;27;20469;-62
2023/04/19 02:56:14;;;;;;;0.40;0.40;;;;;;;11.24;100.00;94775.91;5133167;27;20502;-62
2023/04/19 02:58:42;;;;;;;0.80;0.40;;;;;;;11.26;100.00;94772.97;5133008;27;20518;-62
2023/04/19 03:01:11;;;;;;;0.40;0.30;;;;;;;11.14;100.00;94775.25;5133076;27;20962;-62
2023/04/19 03:03:39;;;;;;;4.83;1.60;;;;;;;11.17;100.00;94774.69;5132631;27;20830;-61
2023/04/19 03:06:08;;;;;;;0.50;0.50;;;;;;;11.07;100.00;94772.16;5132968;27;20636;-62
2023/04/19 03:08:38;;;;;;;0.50;0.43;;;;;;;11.22;100.00;94772.75;5132506;27;20939;-61
2023/04/19 03:11:06;;;;;;;0.30;0.30;;;;;;;11.07;100.00;94774.81;5132786;27;20439;-61
2023/04/19 03:13:35;;;;;;;0.30;0.20;;;;;;;11.04;100.00;94772.72;5132784;27;20969;-61
2023/04/19 03:16:04;;;;;;;0.30;0.20;;;;;;;10.99;100.00;94768.28;5118721;27;20471;-61
2023/04/19 03:18:33;;;;;;;0.30;0.20;;;;;;;10.97;100.00;94749.22;5133091;27;20442;-62
2023/04/19 03:21:01;;;;;;;0.30;0.20;;;;;;;11.21;100.00;94776.47;5132709;27;20825;-61
2023/04/19 03:23:30;;;;;;;0.30;0.20;;;;;;;11.30;100.00;94780.09;5132174;27;20868;-62
2023/04/19 03:25:59;;;;;;;0.50;0.50;;;;;;;11.12;100.00;94777.41;5132365;27;20483;-61
2023/04/19 03:28:28;;;;;;;0.50;0.30;;;;;;;11.09;100.00;94770.81;5132678;27;20449;-62
2023/04/19 03:30:56;;;;;;;0.40;0.30;;;;;;;11.20;100.00;94772.25;5132513;27;20441;-62
2023/04/19 03:33:24;;;;;;;0.40;0.30;;;;;;;11.21;100.00;94778.34;5132241;27;20835;-62
2023/04/19 03:35:53;;;;;;;0.30;0.20;;;;;;;11.11;100.00;94776.63;5132140;27;20471;-62
2023/04/19 03:38:21;;;;;;;0.30;0.20;;;;;;;11.12;100.00;94783.50;5132331;27;20435;-64
2023/04/19 03:40:50;;;;;;;0.30;0.30;;;;;;;10.98;100.00;94772.00;5126925;27;20534;-62
2023/04/19 03:43:19;;;;;;;0.93;0.93;;;;;;;11.10;100.00;94784.88;5124126;27;20450;-62
2023/04/19 03:45:47;;;;;;;0.30;0.20;;;;;;;11.05;100.00;94783.06;5132127;27;20805;-62
2023/04/19 03:48:16;;;;;;;0.40;0.30;;;;;;;10.83;100.00;94782.78;5132825;28;20553;-62
2023/04/19 03:50:44;;;;;;;1.47;0.93;;;;;;;10.78;100.00;94785.50;5132184;28;20949;-62
2023/04/19 03:53:12;;;;;;;0.63;0.60;;;;;;;10.99;100.00;94765.63;5132169;27;20431;-61
2023/04/19 03:55:41;;;;;;;0.43;0.43;;;;;;;11.21;100.00;94787.09;5132333;28;20442;-62
2023/04/19 03:58:09;;;;;;;0.40;0.30;;;;;;;11.31;100.00;94786.16;5131912;28;20495;-61
2023/04/19 04:00:39;;;;;;;1.17;1.17;;;;;;;11.42;100.00;94782.31;5132574;28;20439;-61
2023/04/19 04:03:07;;;;;;;2.00;0.97;;;;;;;11.47;100.00;94793.63;5131927;28;20965;-61
2023/04/19 04:05:36;;;;;;;0.40;0.30;;;;;;;11.33;100.00;94790.09;5132343;28;20435;-62
2023/04/19 04:08:05;;;;;;;0.40;0.30;;;;;;;11.01;100.00;94765.34;5129829;27;20446;-62
2023/04/19 04:10:33;;;;;;;6.93;0.90;;;;;;;11.12;100.00;94757.00;5121597;28;20518;-61
2023/04/19 04:13:02;;;;;;;1.00;1.00;;;;;;;11.40;100.00;94790.56;5132522;28;20431;-62
2023/04/19 04:15:30;;;;;;;0.60;0.60;;;;;;;11.36;100.00;94797.50;5131929;27;20950;-61
2023/04/19 04:18:00;;;;;;;6.57;2.43;;;;;;;11.12;100.00;94810.03;5132166;27;20501;-61
2023/04/19 04:20:28;;;;;;;3.70;3.60;;;;;;;11.20;100.00;94793.50;5132204;28;20443;-61
2023/04/19 04:22:56;;;;;;;4.07;2.33;;;;;;;11.28;100.00;94803.44;5131881;28;20481;-61
2023/04/19 04:25:25;;;;;;;3.47;3.17;;;;;;;11.36;100.00;94805.47;5131900;27;20537;-62
2023/04/19 04:27:53;;;;;;;3.07;1.77;;;;;;;11.41;100.00;94797.44;5131289;28;20955;-61
2023/04/19 04:30:21;;;;;;;2.57;2.37;;;;;;;11.44;100.00;94804.81;5131961;28;20435;-61
2023/04/19 04:32:52;;;;;;;3.80;1.37;;;;;;;11.20;100.00;94801.44;5131887;27;20439;-61
2023/04/19 04:35:22;;;;;;;1.27;1.07;;;;;;;11.35;100.00;94795.16;5131814;28;20435;-62
2023/04/19 04:37:52;;;;;;;2.43;1.00;;;;;;;11.31;100.00;94796.78;5106446;28;20480;-62
2023/04/19 04:40:21;;;;;;;0.40;0.40;;;;;;;11.61;100.00;94791.06;5131422;28;20502;-60
2023/04/19 04:42:51;;;;;;;0.60;0.60;;;;;;;11.44;100.00;94794.22;5131634;28;20522;-61
2023/04/19 04:45:20;;;;;;;1.07;1.03;;;;;;;11.55;100.00;94799.38;5133046;27;20435;-60
2023/04/19 04:47:48;;;;;;;0.30;0.20;;;;;;;11.54;100.00;94800.44;5135527;27;20435;-60
2023/04/19 04:50:17;;;;;;;1.90;1.10;;;;;;;11.49;100.00;94803.97;5135440;27;20434;-61
2023/04/19 04:52:46;;;;;;;0.70;0.70;;;;;;;11.59;100.00;94797.72;5135785;27;20507;-61
2023/04/19 04:55:15;;;;;;;1.00;1.00;;;;;;;11.56;100.00;94795.66;5135128;27;21010;-60
2023/04/19 04:57:43;;;;;;;1.70;0.90;;;;;;;11.61;100.00;94790.28;5135449;27;20474;-60
2023/04/19 05:00:13;;;;;;;1.17;0.67;;;;;;;11.40;100.00;94753.41;5135770;27;20427;-60
2023/04/19 05:02:41;;;;;;;1.23;1.20;;;;;;;11.69;100.00;94797.63;5135648;27;20525;-60
2023/04/19 05:05:11;;;;;;;1.27;0.93;;;;;;;11.45;100.00;94795.78;5135004;27;20454;-60
2023/04/19 05:07:39;;;;;;;2.97;1.80;;;;;;;11.45;100.00;94797.66;5135576;27;20938;-60
2023/04/19 05:10:10;;;;;;;0.90;0.90;;;;;;;11.69;100.00;94794.97;5134994;27;20434;-61
2023/04/19 05:12:38;;;;;;;2.30;2.20;;;;;;;11.74;100.00;94797.53;5135647;27;20439;-60
2023/04/19 05:15:08;;;;;;;0.63;0.63;;;;;;;11.88;100.00;94796.50;5134900;27;20959;-60
2023/04/19 05:17:36;;;;;;;0.80;0.80;;;;;;;11.81;100.00;94797.97;5131765;27;21073;-60
2023/04/19 05:20:06;;;;;;;1.37;0.90;;;;;;;11.98;100.00;94795.56;5108915;27;20430;-60
2023/04/19 05:22:34;;;;;;;0.60;0.60;;;;;;;11.96;100.00;94797.72;5134996;27;20441;-60
2023/04/19 05:25:02;;;;;;;0.80;0.80;;;;;;;11.92;100.00;94802.81;5134917;27;20470;-60
2023/04/19 05:27:32;;;;;;;2.20;2.10;;;;;;;12.01;100.00;94795.78;5121151;27;20448;-60
2023/04/19 05:30:00;;;;;;;2.83;2.63;;;;;;;11.66;100.00;94803.47;5134579;27;20434;-60
2023/04/19 05:32:29;;;;;;;3.00;2.70;;;;;;;11.61;100.00;94804.34;5134209;27;20831;-60
2023/04/19 05:34:57;;;;;;;2.97;2.77;;;;;;;11.56;100.00;94808.91;5135213;27;20445;-59
2023/04/19 05:37:25;;;;;;;3.70;3.60;;;;;;;11.43;100.00;94807.78;5134129;27;20505;-60
2023/04/19 05:39:53;;;;;;;6.50;6.10;;;;;;;11.23;100.00;94811.47;5133956;27;20442;-59
2023/04/19 05:42:22;;;;;;;2.57;2.37;;;;;;;11.37;100.00;94807.03;5134799;27;20893;-59
2023/04/19 05:44:51;;;;;;;2.30;2.20;;;;;;;11.75;100.00;94807.06;5124065;27;20443;-59
2023/04/19 05:47:20;;;;;;;1.20;1.20;;;;;;;11.82;100.00;94808.28;5132090;27;20430;-60
2023/04/19 05:49:48;;;;;;;0.50;0.50;;;;;;;11.87;100.00;94802.88;5134785;27;20443;-60
2023/04/19 05:52:16;;;;;;;0.40;0.40;;;;;;;11.77;100.00;94811.00;5134418;27;21012;-59
2023/04/19 05:54:45;;;;;;;1.17;1.07;;;;;;;11.60;100.00;94809.91;5134350;27;20439;-59
2023/04/19 05:57:13;;;;;;;7.93;1.23;;;;;;;11.64;100.00;94813.59;5133711;27;21000;-60
2023/04/19 05:59:42;;;;;;;1.20;0.73;;;;;;;11.73;100.00;94811.88;5134315;27;20931;-60
2023/04/19 06:02:12;;;;;;;0.87;0.87;;;;;;;11.64;100.00;94816.25;5107845;27;20435;-59
2023/04/19 06:04:41;;;;;;;2.03;1.00;;;;;;;11.77;100.00;94804.91;5134104;27;20977;-59
2023/04/19 06:07:09;;;;;;;0.40;0.30;;;;;;;11.97;100.00;94815.22;5134322;27;20967;-59
2023/04/19 06:09:57;;;;;;;0.57;0.40;;;;;;;12.19;100.00;94810.09;5133902;27;20853;-61
2023/04/19 06:12:25;;;;;;;0.63;0.63;;;;;;;12.32;100.00;94806.66;5133833;27;20434;-61
2023/04/19 06:14:55;;;;;;;1.70;0.87;;;;;;;12.17;100.00;94825.50;5134124;27;20435;-62
2023/04/19 06:17:24;;;;;;;3.70;1.53;;;;;;;12.24;100.00;94817.97;5133808;27;20569;-61
2023/04/19 06:19:53;;;;;;;1.20;1.13;;;;;;;12.67;100.00;94814.00;5133873;27;20793;-61
2023/04/19 06:22:21;;;;;;;0.40;0.40;;;;;;;12.52;100.00;94758.47;5133965;27;20965;-61
2023/04/19 06:24:50;;;;;;;2.20;0.50;;;;;;;13.14;100.00;94806.75;5106471;27;20557;-61
2023/04/19 06:27:18;;;;;;;2.00;1.90;;;;;;;13.52;100.00;94801.97;5133284;27;20438;-61
2023/04/19 06:29:46;;;;;;;1.03;0.93;;;;;;;13.69;100.00;94802.13;5121109;27;20518;-61
2023/04/19 06:32:18;;;;;;;1.37;1.30;;;;;;;13.55;100.00;94802.19;5133259;27;20435;-61
2023/04/19 06:34:47;;;;;;;1.80;1.70;;;;;;;13.38;100.00;94791.38;5133676;27;20435;-61
2023/04/19 06:37:15;;;;;;;1.37;0.70;;;;;;;13.80;100.00;94793.63;5133118;27;20510;-61
2023/04/19 06:39:44;;;;;;;2.07;1.97;;;;;;;14.05;100.00;94799.44;5133381;27;20435;-61
2023/04/19 06:42:12;;;;;;;1.43;1.43;;;;;;;14.15;100.00;94735.22;5133316;27;20809;-61
2023/04/19 06:44:41;;;;;;;0.67;0.67;;;;;;;14.90;97.96;94799.91;5133265;27;20462;-61
2023/04/19 06:47:09;;;;;;;0.57;0.50;;;;;;;14.90;97.71;94794.59;5133232;27;20862;-64
2023/04/19 06:49:38;;;;;;;1.07;1.07;;;;;;;14.63;93.19;94752.13;5133124;27;20521;-64
2023/04/19 06:52:07;;;;;;;4.17;1.10;;;;;;;15.38;90.68;94799.91;5132790;27;20474;-64
2023/04/19 06:54:36;;;;;;;1.40;0.70;;;;;;;15.56;87.35;94795.44;5133512;27;20439;-64
2023/04/19 06:57:04;;;;;;;0.70;0.70;;;;;;;16.00;82.82;94797.78;5132674;27;21130;-63
2023/04/19 06:59:32;;;;;;;2.10;1.90;;;;;;;16.14;84.79;94797.63;5133509;27;20478;-65
2023/04/19 07:02:01;;;;;;;1.37;1.37;;;;;;;16.21;82.23;94790.72;5132943;27;20439;-65
2023/04/19 07:04:29;;;;;;;2.40;0.80;;;;;;;16.67;80.73;94787.31;5120290;27;20522;-65
2023/04/19 07:06:58;;;;;;;1.90;1.80;;;;;;;16.59;78.56;94787.34;5132504;27;20434;-64
2023/04/19 07:09:28;;;;;;;0.97;0.97;;;;;;;16.91;74.91;94794.78;5131969;27;20438;-62
2023/04/19 07:11:56;;;;;;;1.53;1.43;;;;;;;17.48;72.18;94787.88;5106762;27;20431;-62
2023/04/19 07:14:26;;;;;;;1.13;1.13;;;;;;;17.99;70.00;94789.44;5132129;27;20538;-61
2023/04/19 07:16:55;;;;;;;0.87;0.80;;;;;;;18.57;66.67;94785.75;5132819;27;20456;-62
2023/04/19 07:19:23;;;;;;;1.30;1.03;;;;;;;17.95;67.95;94788.53;5132589;27;20506;-61
2023/04/19 07:21:52;;;;;;;0.57;0.50;;;;;;;17.54;68.72;94789.28;5133061;27;20431;-61
2023/04/19 07:24:20;;;;;;;0.40;0.40;;;;;;;17.43;71.57;94785.38;5132184;27;20478;-62
2023/04/19 07:26:50;;;;;;;0.53;0.50;;;;;;;17.83;71.95;94791.16;5122840;27;20444;-62
2023/04/19 07:29:18;;;;;;;0.70;0.70;;;;;;;17.90;70.86;94783.38;5117479;27;20459;-62
2023/04/19 07:31:47;;;;;;;0.50;0.30;;;;;;;18.36;69.63;94788.47;5133051;27;20542;-63
2023/04/19 07:34:15;;;;;;;0.57;0.57;;;;;;;17.86;69.17;94781.66;5132375;27;20435;-64
2023/04/19 07:36:44;;;;;;;0.53;0.53;;;;;;;18.15;70.66;94781.56;5132974;27;20431;-66
2023/04/19 07:39:12;;;;;;;0.70;0.67;;;;;;;18.40;67.11;94788.59;5132209;27;20569;-67
2023/04/19 07:41:40;;;;;;;1.03;0.60;;;;;;;18.55;66.92;94789.88;5132227;27;20438;-67
2023/04/19 07:44:12;;;;;;;0.40;0.40;;;;;;;18.52;66.99;94783.28;5132355;27;20947;-68
2023/04/19 07:46:42;;;;;;;0.80;0.80;;;;;;;18.42;67.36;94789.81;5132419;27;20451;-68
2023/04/19 07:49:11;;;;;;;0.73;0.50;;;;;;;19.08;64.83;94786.28;5132804;27;20439;-64
2023/04/19 07:51:39;;;;;;;1.17;0.73;;;;;;;18.54;66.95;94782.97;5118603;28;20463;-67
2023/04/19 07:54:09;;;;;;;0.57;0.57;;;;;;;18.68;66.81;94786.91;5132411;28;20435;-67
2023/04/19 07:56:37;;;;;;;0.60;0.60;;;;;;;19.82;68.37;94784.00;5131197;28;20522;-66
2023/04/19 07:59:05;;;;;;;1.13;0.90;;;;;;;20.87;67.16;94786.16;5131969;28;20557;-64
2023/04/19 08:01:37;;;;;;;0.80;0.80;;;;;;;20.74;58.84;94775.81;5131494;28;20441;-62
2023/04/19 08:04:06;;;;;;;0.53;0.53;;;;;;;20.59;61.56;94785.41;5131899;28;20515;-63
2023/04/19 08:06:38;;;;;;;1.10;1.10;;;;;;;21.53;59.08;94780.84;5131494;28;20526;-63
2023/04/19 08:09:06;;;;;;;1.40;1.30;;;;;;;20.32;58.83;94769.28;5131677;28;20442;-64
2023/04/19 08:11:35;;;;;;;1.33;1.33;;;;;;;20.39;59.89;94777.56;5131724;28;20915;-63
2023/04/19 08:14:03;;;;;;;0.93;0.93;;;;;;;20.28;59.85;94769.22;5132254;28;20434;-66
2023/04/19 08:16:53;;;;;;;0.40;0.30;;;;;;;21.52;56.96;94775.81;5132091;28;20439;-64
2023/04/19 08:19:24;;;;;;;0.57;0.57;;;;;;;21.58;56.00;94773.63;5132252;27;20486;-63
2023/04/19 08:21:52;;;;;;;0.70;0.70;;;;;;;22.83;56.03;94765.00;5136373;27;20442;-64
2023/04/19 08:24:20;;;;;;;0.60;0.60;;;;;;;23.04;52.33;94749.94;5135557;27;20462;-64
2023/04/19 08:26:52;;;;;;;0.80;0.67;;;;;;;21.50;55.59;94718.75;5136093;27;20903;-64
2023/04/19 08:29:21;;;;;;;1.10;0.63;;;;;;;20.94;55.51;94755.94;5132569;27;20504;-63
2023/04/19 08:31:50;;;;;;;0.60;0.60;;;;;;;22.27;52.87;94756.59;5126451;27;20469;-63
2023/04/19 08:34:20;;;;;;;1.77;1.67;;;;;;;23.52;52.20;94750.31;5135914;27;20427;-63
2023/04/19 08:36:48;;;;;;;2.30;0.40;;;;;;;22.32;53.42;94742.81;5135857;27;21052;-63
2023/04/19 08:39:30;;;;;;;0.80;0.67;;;;;;;21.96;52.21;94744.81;5135434;27;20470;-65
2023/04/19 08:42:04;;;;;;;0.90;0.90;;;;;;;22.28;51.51;94755.47;5135555;27;20430;-64
2023/04/19 08:44:52;;;;;;;0.57;0.50;;;;;;;23.52;51.10;94739.50;5135834;27;20442;-66
2023/04/19 08:47:41;;;;;;;0.83;0.30;;;;;;;23.13;50.60;94739.66;5135478;27;20438;-66
2023/04/19 08:50:29;;;;;;;0.50;0.40;;;;;;;22.65;51.32;94737.66;5135489;27;20438;-68
2023/04/19 08:53:07;;;;;;;0.60;0.60;;;;;;;22.06;53.10;94738.84;5135583;27;20434;-68
2023/04/19 08:55:53;;;;;;;0.53;0.47;;;;;;;21.00;54.11;94735.66;5135420;27;21009;-70
2023/04/19 08:58:41;;;;;;;0.93;0.73;;;;;;;20.56;56.72;94742.25;5135503;27;20486;-74
2023/04/19 09:01:12;;;;;;;0.83;0.83;;;;;;;19.32;56.87;94748.69;5135939;27;20453;-75
2023/04/19 09:04:00;;;;;;;0.60;0.60;;;;;;;20.05;56.89;94736.66;5135401;27;20446;-73
2023/04/19 09:06:50;;;;;;;0.50;0.40;;;;;;;19.94;56.05;94742.84;5135293;27;20514;-75
2023/04/19 09:09:21;;;;;;;0.40;0.30;;;;;;;19.82;57.35;94735.59;5135648;27;20474;-77
2023/04/19 09:11:52;;;;;;;0.40;0.30;;;;;;;20.01;54.93;94737.69;5135450;27;20446;-74
2023/04/19 09:14:22;;;;;;;0.40;0.30;;;;;;;19.42;54.05;94737.50;5135311;27;21010;-70
2023/04/19 09:16:51;;;;;;;0.40;0.40;;;;;;;18.91;53.87;94737.03;5135657;27;20489;-70
2023/04/19 09:19:19;;;;;;;0.40;0.30;;;;;;;19.36;53.42;94739.59;5134829;27;20555;-68
2023/04/19 09:21:55;;;;;;;0.40;0.30;;;;;;;20.73;53.88;94731.94;5135239;27;20442;-70
2023/04/19 09:24:38;;;;;;;0.53;0.53;;;;;;;19.67;55.07;94741.69;5131848;27;20474;-68
2023/04/19 09:27:10;;;;;;;0.50;0.50;;;;;;;20.27;55.24;94735.34;5127477;27;20446;-67
2023/04/19 09:29:39;;;;;;;0.50;0.50;;;;;;;20.14;54.61;94739.97;5134736;27;20431;-67
2023/04/19 09:32:07;;;;;;;0.60;0.30;;;;;;;20.65;54.21;94692.50;5133522;27;20851;-64
2023/04/19 09:34:36;;;;;;;1.03;0.70;;;;;;;19.85;53.59;94745.69;5135168;27;20431;-63
2023/04/19 09:37:15;;;;;;;1.53;0.40;;;;;;;19.05;52.55;94741.31;5120952;27;20439;-62
2023/04/19 09:40:22;;;;;;;1.37;0.90;;;;;;;19.30;54.78;94748.22;5134685;27;21043;-62
2023/04/19 09:42:50;;;;;;;0.73;0.73;;;;;;;19.33;54.09;94739.47;5111408;27;20868;-62
2023/04/19 09:45:22;;;;;;;3.63;0.60;;;;;;;19.07;52.08;94745.22;5136286;27;20447;-60
2023/04/19 09:48:03;;;;;;;0.40;0.30;;;;;;;18.89;53.33;94698.22;5135931;27;20442;-60
2023/04/19 09:50:31;;;;;;;1.03;0.83;;;;;;;19.67;50.43;94749.75;5134246;27;20431;-60
2023/04/19 09:53:12;;;;;;;0.40;0.30;;;;;;;19.43;49.67;94744.44;5134140;27;20442;-60
2023/04/19 09:55:41;;;;;;;1.13;1.03;;;;;;;19.72;50.07;94746.06;5109332;27;20497;-60
2023/04/19 09:58:28;;;;;;;15.23;0.90;;;;;;;19.32;50.78;94717.22;5134533;27;20596;-60
2023/04/19 10:01:18;;;;;;;0.40;0.40;;;;;;;19.46;51.87;94741.06;5134299;27;20489;-61
2023/04/19 10:03:49;;;;;;;0.80;0.80;;;;;;;19.19;49.79;94663.84;5134476;27;21014;-63
2023/04/19 10:06:20;;;;;;;1.70;1.47;;;;;;;19.46;50.41;94719.56;5134059;27;20434;-62
2023/04/19 10:08:55;;;;;;;0.40;0.20;;;;;;;19.80;50.28;94718.25;5134427;27;20438;-62
2023/04/19 10:11:26;;;;;;;0.50;0.30;;;;;;;19.94;49.89;94732.06;5133943;27;21027;-61
2023/04/19 10:13:57;;;;;;;0.47;0.47;;;;;;;19.44;50.62;94724.50;5134213;27;20484;-61
2023/04/19 10:16:26;;;;;;;0.40;0.27;;;;;;;20.49;50.38;94725.94;5133629;27;20430;-62
2023/04/19 10:18:56;;;;;;;0.63;0.30;;;;;;;20.87;48.44;94696.50;5133716;27;20430;-61
2023/04/19 10:21:26;;;;;;;0.40;0.30;;;;;;;20.54;51.00;94725.66;5133603;27;20478;-62
2023/04/19 10:23:57;;;;;;;0.40;0.30;;;;;;;20.20;50.04;94725.16;5134028;27;20808;-62
2023/04/19 10:26:25;;;;;;;0.57;0.40;;;;;;;20.21;50.02;94725.94;5106908;27;20491;-65
2023/04/19 10:28:56;;;;;;;0.80;0.53;;;;;;;20.88;48.78;94679.19;5133230;27;20435;-76
2023/04/19 10:31:25;;;;;;;0.40;0.30;;;;;;;20.56;48.77;94726.09;5134066;27;20474;-79
2023/04/19 10:33:56;;;;;;;0.40;0.30;;;;;;;21.30;48.51;94720.59;5133787;27;20437;-71
2023/04/19 10:36:27;;;;;;;0.50;0.50;;;;;;;22.16;47.41;94702.41;5133595;27;20446;-71
2023/04/19 10:38:57;;;;;;;0.50;0.40;;;;;;;21.84;47.39;94709.84;5133616;27;20454;-71
2023/04/19 10:41:59;;;;;;;0.50;0.40;;;;;;;20.87;49.14;94709.97;5133885;27;20884;-71
2023/04/19 10:44:27;;;;;;;0.63;0.63;;;;;;;20.77;48.58;94713.19;5109883;27;20857;-73
2023/04/19 10:46:55;;;;;;;2.10;1.90;;;;;;;19.66;50.94;94724.00;5133993;27;20457;-78
2023/04/19 10:49:24;;;;;;;0.30;0.20;;;;;;;19.32;51.74;94721.81;5124235;27;20939;-71
2023/04/19 10:51:53;;;;;;;1.00;0.50;;;;;;;19.63;51.47;94725.47;5129463;27;20431;-67
2023/04/19 10:54:31;;;;;;;0.40;0.30;;;;;;;19.77;51.50;94710.84;5132943;27;20427;-64
2023/04/19 10:57:01;;;;;;;0.40;0.20;;;;;;;19.37;50.47;94727.75;5132820;27;20426;-62
2023/04/19 10:59:30;;;;;;;0.40;0.30;;;;;;;18.04;53.29;94724.06;5132993;27;20442;-61
2023/04/19 11:02:00;;;;;;;0.33;0.20;;;;;;;18.27;53.51;94728.75;5133128;27;20464;-61
2023/04/19 11:05:06;;;;;;;0.40;0.20;;;;;;;18.31;57.30;94734.25;5133117;27;20439;-62
2023/04/19 11:07:41;;;;;;;0.50;0.40;;;;;;;18.09;62.39;94740.00;5114152;27;20474;-63
2023/04/19 11:10:11;;;;;;;0.53;0.53;;;;;;;17.84;60.24;94727.56;5133286;27;20513;-65
2023/04/19 11:12:44;;;;;;;0.40;0.20;;;;;;;18.11;64.93;94713.63;5132758;27;20439;-66
2023/04/19 11:15:13;;;;;;;0.40;0.30;;;;;;;18.21;66.05;94730.09;5106349;27;20936;-67
2023/04/19 11:17:41;;;;;;;0.40;0.30;;;;;;;17.93;64.48;94682.72;5132824;27;20435;-66
2023/04/19 11:20:11;;;;;;;2.10;0.37;;;;;;;18.22;63.74;94733.53;5124670;27;21021;-66
2023/04/19 11:22:41;;;;;;;0.80;0.80;;;;;;;18.54;63.32;94729.28;5127040;27;20474;-66
2023/04/19 11:25:12;;;;;;;0.40;0.30;;;;;;;19.66;60.31;94725.91;5132445;27;20470;-64
2023/04/19 11:27:41;;;;;;;0.40;0.30;;;;;;;20.13;59.01;94686.50;5132845;27;20446;-68
2023/04/19 11:30:12;;;;;;;0.57;0.47;;;;;;;20.38;55.89;94722.16;5133026;27;20465;-75
2023/04/19 11:32:47;;;;;;;0.40;0.30;;;;;;;20.22;54.02;94714.03;5132093;27;20813;-71
2023/04/19 11:35:18;;;;;;;0.40;0.30;;;;;;;20.38;53.87;94708.72;5132520;27;20474;-71
2023/04/19 11:37:46;;;;;;;0.40;0.27;;;;;;;20.19;53.27;94675.13;5132225;27;20435;-72
2023/04/19 11:40:18;;;;;;;2.73;1.83;;;;;;;21.62;50.94;94701.66;5132835;27;20907;-71
2023/04/19 11:42:47;;;;;;;0.50;0.40;;;;;;;21.34;50.67;94699.94;5132527;27;20465;-70
2023/04/19 11:45:26;;;;;;;0.40;0.30;;;;;;;22.43;51.95;94700.59;5132473;27;20435;-69